sensor_id;sensor_type;location;lat;lon;timestamp;P1;durP1;ratioP1;P2;durP2;ratioP2
3726;SDS011;1879;45.876;12.300;2023-07-28T00:02:09;2.40;;;2.20;;
3726;SDS011;1879;45.876;12.300;2023-07-28T00:04:36;2.60;;;2.40;;
3726;SDS011;1879;45.876;12.300;2023-07-28T00:07:03;2.77;;;2.50;;
3726;SDS011;1879;45.876;12.300;2023-07-28T00:09:31;3.03;;;2.60;;
3726;SDS011;1879;45.876;12.300;2023-07-28T00:11:58;2.47;;;2.07;;
3726;SDS011;1879;45.876;12.300;2023-07-28T00:14:26;3.03;;;2.50;;
3726;SDS011;1879;45.876;12.300;2023-07-28T00:16:56;2.60;;;2.33;;
3726;SDS011;1879;45.876;12.300;2023-07-28T00:19:23;2.40;;;2.20;;
3726;SDS011;1879;45.876;12.300;2023-07-28T00:21:51;2.70;;;2.50;;
3726;SDS011;1879;45.876;12.300;2023-07-28T00:24:18;4.00;;;2.53;;
3726;SDS011;1879;45.876;12.300;2023-07-28T00:26:45;4.70;;;2.40;;
3726;SDS011;1879;45.876;12.300;2023-07-28T00:29:12;2.33;;;2.10;;
3726;SDS011;1879;45.876;12.300;2023-07-28T00:31:39;3.60;;;2.80;;
3726;SDS011;1879;45.876;12.300;2023-07-28T00:34:07;5.00;;;2.40;;
3726;SDS011;1879;45.876;12.300;2023-07-28T00:36:34;3.23;;;2.50;;
3726;SDS011;1879;45.876;12.300;2023-07-28T00:39:01;3.27;;;2.50;;
3726;SDS011;1879;45.876;12.300;2023-07-28T00:41:28;3.27;;;2.70;;
3726;SDS011;1879;45.876;12.300;2023-07-28T00:43:55;3.30;;;2.60;;
3726;SDS011;1879;45.876;12.300;2023-07-28T00:46:22;3.07;;;2.23;;
3726;SDS011;1879;45.876;12.300;2023-07-28T00:48:49;3.37;;;2.33;;
3726;SDS011;1879;45.876;12.300;2023-07-28T00:51:18;4.20;;;2.67;;
3726;SDS011;1879;45.876;12.300;2023-07-28T00:53:47;2.53;;;2.33;;
3726;SDS011;1879;45.876;12.300;2023-07-28T00:56:14;3.20;;;2.27;;
3726;SDS011;1879;45.876;12.300;2023-07-28T00:58:42;2.40;;;2.20;;
3726;SDS011;1879;45.876;12.300;2023-07-28T01:01:09;3.20;;;2.47;;
3726;SDS011;1879;45.876;12.300;2023-07-28T01:03:36;3.00;;;2.67;;
3726;SDS011;1879;45.876;12.300;2023-07-28T01:06:07;2.73;;;2.17;;
3726;SDS011;1879;45.876;12.300;2023-07-28T01:08:45;3.03;;;2.50;;
3726;SDS011;1879;45.876;12.300;2023-07-28T01:11:15;3.10;;;2.70;;
3726;SDS011;1879;45.876;12.300;2023-07-28T01:13:42;3.30;;;2.33;;
3726;SDS011;1879;45.876;12.300;2023-07-28T01:16:09;2.90;;;2.23;;
3726;SDS011;1879;45.876;12.300;2023-07-28T01:18:36;4.83;;;2.60;;
3726;SDS011;1879;45.876;12.300;2023-07-28T01:21:05;2.77;;;2.50;;
3726;SDS011;1879;45.876;12.300;2023-07-28T01:23:37;2.70;;;2.10;;
3726;SDS011;1879;45.876;12.300;2023-07-28T01:26:15;3.43;;;2.73;;
3726;SDS011;1879;45.876;12.300;2023-07-28T01:28:45;2.50;;;2.30;;
3726;SDS011;1879;45.876;12.300;2023-07-28T01:31:13;2.40;;;2.20;;
3726;SDS011;1879;45.876;12.300;2023-07-28T01:33:40;4.40;;;2.80;;
3726;SDS011;1879;45.876;12.300;2023-07-28T01:36:07;3.00;;;2.70;;
3726;SDS011;1879;45.876;12.300;2023-07-28T01:38:33;2.70;;;2.40;;
3726;SDS011;1879;45.876;12.300;2023-07-28T01:41:00;2.43;;;2.20;;
3726;SDS011;1879;45.876;12.300;2023-07-28T01:43:27;3.50;;;2.70;;
3726;SDS011;1879;45.876;12.300;2023-07-28T01:45:56;2.73;;;2.37;;
3726;SDS011;1879;45.876;12.300;2023-07-28T01:48:23;3.93;;;2.50;;
3726;SDS011;1879;45.876;12.300;2023-07-28T01:50:50;2.53;;;2.33;;
3726;SDS011;1879;45.876;12.300;2023-07-28T01:53:17;2.87;;;2.43;;
3726;SDS011;1879;45.876;12.300;2023-07-28T01:55:43;4.03;;;3.10;;
3726;SDS011;1879;45.876;12.300;2023-07-28T01:58:10;4.50;;;2.57;;
3726;SDS011;1879;45.876;12.300;2023-07-28T02:00:37;3.30;;;2.70;;
3726;SDS011;1879;45.876;12.300;2023-07-28T02:03:06;4.40;;;2.67;;
3726;SDS011;1879;45.876;12.300;2023-07-28T02:05:33;3.20;;;2.90;;
3726;SDS011;1879;45.876;12.300;2023-07-28T02:07:59;3.77;;;2.40;;
3726;SDS011;1879;45.876;12.300;2023-07-28T02:10:29;2.80;;;2.60;;
3726;SDS011;1879;45.876;12.300;2023-07-28T02:12:56;3.23;;;2.57;;
3726;SDS011;1879;45.876;12.300;2023-07-28T02:15:23;4.20;;;2.80;;
3726;SDS011;1879;45.876;12.300;2023-07-28T02:17:50;5.80;;;3.17;;
3726;SDS011;1879;45.876;12.300;2023-07-28T02:20:18;3.60;;;2.83;;
3726;SDS011;1879;45.876;12.300;2023-07-28T02:22:45;3.87;;;3.47;;
3726;SDS011;1879;45.876;12.300;2023-07-28T02:25:12;3.90;;;3.50;;
3726;SDS011;1879;45.876;12.300;2023-07-28T02:27:39;4.60;;;4.20;;
3726;SDS011;1879;45.876;12.300;2023-07-28T02:30:06;3.20;;;2.90;;
3726;SDS011;1879;45.876;12.300;2023-07-28T02:32:34;3.53;;;3.23;;
3726;SDS011;1879;45.876;12.300;2023-07-28T02:35:01;4.00;;;3.60;;
3726;SDS011;1879;45.876;12.300;2023-07-28T02:37:29;4.77;;;3.27;;
3726;SDS011;1879;45.876;12.300;2023-07-28T02:39:56;3.40;;;3.10;;
3726;SDS011;1879;45.876;12.300;2023-07-28T02:42:23;4.90;;;3.10;;
3726;SDS011;1879;45.876;12.300;2023-07-28T02:44:51;3.97;;;3.20;;
3726;SDS011;1879;45.876;12.300;2023-07-28T02:47:18;4.93;;;3.43;;
3726;SDS011;1879;45.876;12.300;2023-07-28T02:49:45;7.73;;;3.57;;
3726;SDS011;1879;45.876;12.300;2023-07-28T02:52:12;3.50;;;2.90;;
3726;SDS011;1879;45.876;12.300;2023-07-28T02:54:40;3.60;;;3.20;;
3726;SDS011;1879;45.876;12.300;2023-07-28T02:57:07;3.37;;;2.83;;
3726;SDS011;1879;45.876;12.300;2023-07-28T02:59:34;5.43;;;3.27;;
3726;SDS011;1879;45.876;12.300;2023-07-28T03:02:01;5.20;;;3.40;;
3726;SDS011;1879;45.876;12.300;2023-07-28T03:04:28;3.50;;;3.20;;
3726;SDS011;1879;45.876;12.300;2023-07-28T03:06:55;5.30;;;3.30;;
3726;SDS011;1879;45.876;12.300;2023-07-28T03:09:22;5.30;;;2.83;;
3726;SDS011;1879;45.876;12.300;2023-07-28T03:11:50;3.80;;;2.60;;
3726;SDS011;1879;45.876;12.300;2023-07-28T03:14:17;5.27;;;3.50;;
3726;SDS011;1879;45.876;12.300;2023-07-28T03:16:44;3.17;;;2.87;;
3726;SDS011;1879;45.876;12.300;2023-07-28T03:19:11;4.30;;;3.57;;
3726;SDS011;1879;45.876;12.300;2023-07-28T03:21:38;3.80;;;3.23;;
3726;SDS011;1879;45.876;12.300;2023-07-28T03:24:05;3.00;;;2.70;;
3726;SDS011;1879;45.876;12.300;2023-07-28T03:26:32;4.60;;;3.07;;
3726;SDS011;1879;45.876;12.300;2023-07-28T03:29:00;3.53;;;3.20;;
3726;SDS011;1879;45.876;12.300;2023-07-28T03:31:27;3.60;;;3.23;;
3726;SDS011;1879;45.876;12.300;2023-07-28T03:33:54;5.80;;;3.07;;
3726;SDS011;1879;45.876;12.300;2023-07-28T03:36:22;3.40;;;3.10;;
3726;SDS011;1879;45.876;12.300;2023-07-28T03:38:48;3.07;;;2.77;;
3726;SDS011;1879;45.876;12.300;2023-07-28T03:41:15;2.93;;;2.63;;
3726;SDS011;1879;45.876;12.300;2023-07-28T03:43:42;6.77;;;3.50;;
3726;SDS011;1879;45.876;12.300;2023-07-28T03:46:11;3.40;;;2.93;;
3726;SDS011;1879;45.876;12.300;2023-07-28T03:48:38;6.07;;;3.53;;
3726;SDS011;1879;45.876;12.300;2023-07-28T03:51:05;3.57;;;2.90;;
3726;SDS011;1879;45.876;12.300;2023-07-28T03:53:32;3.90;;;3.23;;
3726;SDS011;1879;45.876;12.300;2023-07-28T03:56:00;3.77;;;2.70;;
3726;SDS011;1879;45.876;12.300;2023-07-28T03:58:27;4.93;;;3.00;;
3726;SDS011;1879;45.876;12.300;2023-07-28T04:00:54;3.80;;;3.00;;
3726;SDS011;1879;45.876;12.300;2023-07-28T04:03:23;2.90;;;2.60;;
3726;SDS011;1879;45.876;12.300;2023-07-28T04:05:50;2.97;;;2.67;;
3726;SDS011;1879;45.876;12.300;2023-07-28T04:08:16;4.97;;;3.33;;
3726;SDS011;1879;45.876;12.300;2023-07-28T04:10:44;4.60;;;3.57;;
3726;SDS011;1879;45.876;12.300;2023-07-28T04:13:10;4.23;;;3.83;;
3726;SDS011;1879;45.876;12.300;2023-07-28T04:15:37;4.70;;;2.77;;
3726;SDS011;1879;45.876;12.300;2023-07-28T04:18:04;3.23;;;2.60;;
3726;SDS011;1879;45.876;12.300;2023-07-28T04:20:33;3.67;;;3.10;;
3726;SDS011;1879;45.876;12.300;2023-07-28T04:23:00;3.73;;;2.73;;
3726;SDS011;1879;45.876;12.300;2023-07-28T04:25:27;4.33;;;3.23;;
3726;SDS011;1879;45.876;12.300;2023-07-28T04:27:54;3.20;;;2.90;;
3726;SDS011;1879;45.876;12.300;2023-07-28T04:30:21;4.70;;;2.63;;
3726;SDS011;1879;45.876;12.300;2023-07-28T04:32:48;4.83;;;2.90;;
3726;SDS011;1879;45.876;12.300;2023-07-28T04:35:15;3.20;;;2.90;;
3726;SDS011;1879;45.876;12.300;2023-07-28T04:37:44;4.30;;;3.03;;
3726;SDS011;1879;45.876;12.300;2023-07-28T04:40:11;3.37;;;2.77;;
3726;SDS011;1879;45.876;12.300;2023-07-28T04:42:38;3.07;;;2.77;;
3726;SDS011;1879;45.876;12.300;2023-07-28T04:45:06;3.33;;;3.03;;
3726;SDS011;1879;45.876;12.300;2023-07-28T04:47:35;3.60;;;3.27;;
3726;SDS011;1879;45.876;12.300;2023-07-28T04:50:02;3.60;;;3.30;;
3726;SDS011;1879;45.876;12.300;2023-07-28T04:52:29;3.07;;;2.83;;
3726;SDS011;1879;45.876;12.300;2023-07-28T04:54:57;4.00;;;3.10;;
3726;SDS011;1879;45.876;12.300;2023-07-28T04:57:24;3.93;;;2.83;;
3726;SDS011;1879;45.876;12.300;2023-07-28T04:59:51;2.83;;;2.60;;
3726;SDS011;1879;45.876;12.300;2023-07-28T05:02:18;3.17;;;2.87;;
3726;SDS011;1879;45.876;12.300;2023-07-28T05:04:45;3.47;;;3.07;;
3726;SDS011;1879;45.876;12.300;2023-07-28T05:07:12;3.77;;;2.77;;
3726;SDS011;1879;45.876;12.300;2023-07-28T05:09:39;5.20;;;3.10;;
3726;SDS011;1879;45.876;12.300;2023-07-28T05:12:08;4.50;;;3.50;;
3726;SDS011;1879;45.876;12.300;2023-07-28T05:14:35;3.80;;;3.50;;
3726;SDS011;1879;45.876;12.300;2023-07-28T05:17:02;3.20;;;2.90;;
3726;SDS011;1879;45.876;12.300;2023-07-28T05:19:29;2.90;;;2.60;;
3726;SDS011;1879;45.876;12.300;2023-07-28T05:21:56;3.53;;;3.23;;
3726;SDS011;1879;45.876;12.300;2023-07-28T05:24:23;4.20;;;3.40;;
3726;SDS011;1879;45.876;12.300;2023-07-28T05:26:50;4.70;;;3.03;;
3726;SDS011;1879;45.876;12.300;2023-07-28T05:29:18;6.07;;;3.50;;
3726;SDS011;1879;45.876;12.300;2023-07-28T05:31:45;4.43;;;3.80;;
3726;SDS011;1879;45.876;12.300;2023-07-28T05:34:12;7.03;;;4.90;;
3726;SDS011;1879;45.876;12.300;2023-07-28T05:36:39;45.38;;;15.38;;
3726;SDS011;1879;45.876;12.300;2023-07-28T05:39:06;81.43;;;29.30;;
3726;SDS011;1879;45.876;12.300;2023-07-28T05:41:33;37.40;;;15.17;;
3726;SDS011;1879;45.876;12.300;2023-07-28T05:44:01;55.47;;;19.57;;
3726;SDS011;1879;45.876;12.300;2023-07-28T05:46:29;45.37;;;16.17;;
3726;SDS011;1879;45.876;12.300;2023-07-28T05:48:57;10.67;;;5.73;;
3726;SDS011;1879;45.876;12.300;2023-07-28T05:51:24;5.93;;;4.60;;
3726;SDS011;1879;45.876;12.300;2023-07-28T05:53:51;8.50;;;4.60;;
3726;SDS011;1879;45.876;12.300;2023-07-28T05:56:21;7.60;;;3.97;;
3726;SDS011;1879;45.876;12.300;2023-07-28T05:58:48;3.90;;;3.23;;
3726;SDS011;1879;45.876;12.300;2023-07-28T06:01:15;11.47;;;5.30;;
3726;SDS011;1879;45.876;12.300;2023-07-28T06:03:44;5.23;;;3.90;;
3726;SDS011;1879;45.876;12.300;2023-07-28T06:06:11;5.73;;;3.43;;
3726;SDS011;1879;45.876;12.300;2023-07-28T06:08:38;4.83;;;2.80;;
3726;SDS011;1879;45.876;12.300;2023-07-28T06:11:05;4.93;;;3.00;;
3726;SDS011;1879;45.876;12.300;2023-07-28T06:13:32;5.60;;;2.50;;
3726;SDS011;1879;45.876;12.300;2023-07-28T06:15:59;5.23;;;2.90;;
3726;SDS011;1879;45.876;12.300;2023-07-28T06:18:26;7.03;;;3.00;;
3726;SDS011;1879;45.876;12.300;2023-07-28T06:20:55;4.17;;;3.10;;
3726;SDS011;1879;45.876;12.300;2023-07-28T06:23:22;7.27;;;2.70;;
3726;SDS011;1879;45.876;12.300;2023-07-28T06:25:49;3.27;;;2.80;;
3726;SDS011;1879;45.876;12.300;2023-07-28T06:28:19;5.33;;;3.20;;
3726;SDS011;1879;45.876;12.300;2023-07-28T06:30:52;3.67;;;2.90;;
3726;SDS011;1879;45.876;12.300;2023-07-28T06:33:23;6.70;;;3.23;;
3726;SDS011;1879;45.876;12.300;2023-07-28T06:35:50;3.90;;;3.27;;
3726;SDS011;1879;45.876;12.300;2023-07-28T06:38:19;4.70;;;2.97;;
3726;SDS011;1879;45.876;12.300;2023-07-28T06:40:46;3.60;;;3.30;;
3726;SDS011;1879;45.876;12.300;2023-07-28T06:43:13;4.33;;;2.87;;
3726;SDS011;1879;45.876;12.300;2023-07-28T06:45:40;3.50;;;3.00;;
3726;SDS011;1879;45.876;12.300;2023-07-28T06:48:07;4.30;;;3.03;;
3726;SDS011;1879;45.876;12.300;2023-07-28T06:50:34;7.47;;;3.07;;
3726;SDS011;1879;45.876;12.300;2023-07-28T06:53:01;5.60;;;3.70;;
3726;SDS011;1879;45.876;12.300;2023-07-28T06:55:29;5.90;;;3.37;;
3726;SDS011;1879;45.876;12.300;2023-07-28T06:57:56;8.33;;;3.27;;
3726;SDS011;1879;45.876;12.300;2023-07-28T07:00:23;10.40;;;3.13;;
3726;SDS011;1879;45.876;12.300;2023-07-28T07:02:50;5.70;;;3.03;;
3726;SDS011;1879;45.876;12.300;2023-07-28T07:05:17;6.97;;;2.77;;
3726;SDS011;1879;45.876;12.300;2023-07-28T07:07:44;4.40;;;3.40;;
3726;SDS011;1879;45.876;12.300;2023-07-28T07:10:10;3.77;;;2.80;;
3726;SDS011;1879;45.876;12.300;2023-07-28T07:12:39;4.13;;;3.23;;
3726;SDS011;1879;45.876;12.300;2023-07-28T07:15:06;4.23;;;2.73;;
3726;SDS011;1879;45.876;12.300;2023-07-28T07:17:34;5.20;;;2.37;;
3726;SDS011;1879;45.876;12.300;2023-07-28T07:20:01;5.53;;;2.60;;
3726;SDS011;1879;45.876;12.300;2023-07-28T07:22:29;6.70;;;2.50;;
3726;SDS011;1879;45.876;12.300;2023-07-28T07:24:56;11.60;;;2.50;;
3726;SDS011;1879;45.876;12.300;2023-07-28T07:27:23;6.80;;;2.43;;
3726;SDS011;1879;45.876;12.300;2023-07-28T07:29:52;2.93;;;2.50;;
3726;SDS011;1879;45.876;12.300;2023-07-28T07:32:19;5.43;;;2.50;;
3726;SDS011;1879;45.876;12.300;2023-07-28T07:34:46;5.57;;;2.77;;
3726;SDS011;1879;45.876;12.300;2023-07-28T07:37:13;3.60;;;2.50;;
3726;SDS011;1879;45.876;12.300;2023-07-28T07:39:40;2.90;;;2.20;;
3726;SDS011;1879;45.876;12.300;2023-07-28T07:42:09;4.03;;;2.53;;
3726;SDS011;1879;45.876;12.300;2023-07-28T07:44:36;3.93;;;2.43;;
3726;SDS011;1879;45.876;12.300;2023-07-28T07:47:12;4.90;;;2.50;;
3726;SDS011;1879;45.876;12.300;2023-07-28T07:49:40;3.10;;;2.30;;
3726;SDS011;1879;45.876;12.300;2023-07-28T07:52:07;2.20;;;2.00;;
3726;SDS011;1879;45.876;12.300;2023-07-28T07:54:34;4.53;;;2.37;;
3726;SDS011;1879;45.876;12.300;2023-07-28T07:57:01;2.43;;;2.10;;
3726;SDS011;1879;45.876;12.300;2023-07-28T07:59:29;2.53;;;2.30;;
3726;SDS011;1879;45.876;12.300;2023-07-28T08:01:58;2.70;;;2.50;;
3726;SDS011;1879;45.876;12.300;2023-07-28T08:04:29;2.90;;;1.80;;
3726;SDS011;1879;45.876;12.300;2023-07-28T08:06:56;3.13;;;2.07;;
3726;SDS011;1879;45.876;12.300;2023-07-28T08:09:23;2.13;;;1.93;;
3726;SDS011;1879;45.876;12.300;2023-07-28T08:11:50;2.60;;;2.37;;
3726;SDS011;1879;45.876;12.300;2023-07-28T08:14:18;20.73;;;2.60;;
3726;SDS011;1879;45.876;12.300;2023-07-28T08:16:45;3.03;;;2.50;;
3726;SDS011;1879;45.876;12.300;2023-07-28T08:19:12;4.07;;;2.30;;
3726;SDS011;1879;45.876;12.300;2023-07-28T08:21:40;4.43;;;2.60;;
3726;SDS011;1879;45.876;12.300;2023-07-28T08:24:07;6.00;;;2.57;;
3726;SDS011;1879;45.876;12.300;2023-07-28T08:26:34;4.40;;;2.33;;
3726;SDS011;1879;45.876;12.300;2023-07-28T08:29:01;5.90;;;2.33;;
3726;SDS011;1879;45.876;12.300;2023-07-28T08:31:28;3.10;;;2.37;;
3726;SDS011;1879;45.876;12.300;2023-07-28T08:33:55;3.30;;;3.00;;
3726;SDS011;1879;45.876;12.300;2023-07-28T08:36:22;4.43;;;2.70;;
3726;SDS011;1879;45.876;12.300;2023-07-28T08:38:50;2.87;;;2.50;;
3726;SDS011;1879;45.876;12.300;2023-07-28T08:41:18;3.17;;;2.50;;
3726;SDS011;1879;45.876;12.300;2023-07-28T08:43:46;2.70;;;2.20;;
3726;SDS011;1879;45.876;12.300;2023-07-28T08:46:13;5.73;;;2.50;;
3726;SDS011;1879;45.876;12.300;2023-07-28T08:48:40;5.00;;;2.60;;
3726;SDS011;1879;45.876;12.300;2023-07-28T08:51:07;2.67;;;2.43;;
3726;SDS011;1879;45.876;12.300;2023-07-28T08:53:37;2.80;;;2.50;;
3726;SDS011;1879;45.876;12.300;2023-07-28T08:56:05;3.93;;;2.40;;
3726;SDS011;1879;45.876;12.300;2023-07-28T08:58:32;5.00;;;2.70;;
3726;SDS011;1879;45.876;12.300;2023-07-28T09:00:59;3.50;;;2.63;;
3726;SDS011;1879;45.876;12.300;2023-07-28T09:03:27;4.50;;;2.30;;
3726;SDS011;1879;45.876;12.300;2023-07-28T09:05:58;3.73;;;2.60;;
3726;SDS011;1879;45.876;12.300;2023-07-28T09:08:26;5.07;;;2.70;;
3726;SDS011;1879;45.876;12.300;2023-07-28T09:10:54;2.67;;;2.20;;
3726;SDS011;1879;45.876;12.300;2023-07-28T09:13:22;5.20;;;2.50;;
3726;SDS011;1879;45.876;12.300;2023-07-28T09:15:49;2.33;;;2.13;;
3726;SDS011;1879;45.876;12.300;2023-07-28T09:18:16;3.57;;;2.40;;
3726;SDS011;1879;45.876;12.300;2023-07-28T09:20:44;3.40;;;2.40;;
3726;SDS011;1879;45.876;12.300;2023-07-28T09:23:12;5.20;;;2.73;;
3726;SDS011;1879;45.876;12.300;2023-07-28T09:25:41;3.33;;;3.03;;
3726;SDS011;1879;45.876;12.300;2023-07-28T09:28:08;5.27;;;2.57;;
3726;SDS011;1879;45.876;12.300;2023-07-28T09:30:46;3.13;;;2.80;;
3726;SDS011;1879;45.876;12.300;2023-07-28T09:33:28;5.30;;;2.60;;
3726;SDS011;1879;45.876;12.300;2023-07-28T09:35:56;2.63;;;2.43;;
3726;SDS011;1879;45.876;12.300;2023-07-28T09:38:24;3.27;;;2.60;;
3726;SDS011;1879;45.876;12.300;2023-07-28T09:40:56;2.77;;;2.30;;
3726;SDS011;1879;45.876;12.300;2023-07-28T09:43:24;4.03;;;2.43;;
3726;SDS011;1879;45.876;12.300;2023-07-28T09:45:53;4.23;;;2.40;;
3726;SDS011;1879;45.876;12.300;2023-07-28T09:48:22;3.70;;;2.20;;
3726;SDS011;1879;45.876;12.300;2023-07-28T09:50:50;2.90;;;2.40;;
3726;SDS011;1879;45.876;12.300;2023-07-28T09:53:17;3.77;;;2.37;;
3726;SDS011;1879;45.876;12.300;2023-07-28T09:55:46;4.50;;;2.47;;
3726;SDS011;1879;45.876;12.300;2023-07-28T09:58:16;2.97;;;2.40;;
3726;SDS011;1879;45.876;12.300;2023-07-28T10:00:47;5.23;;;2.07;;
3726;SDS011;1879;45.876;12.300;2023-07-28T10:03:16;2.80;;;2.23;;
3726;SDS011;1879;45.876;12.300;2023-07-28T10:05:43;3.77;;;2.13;;
3726;SDS011;1879;45.876;12.300;2023-07-28T10:08:11;2.23;;;2.00;;
3726;SDS011;1879;45.876;12.300;2023-07-28T10:10:39;2.13;;;1.93;;
3726;SDS011;1879;45.876;12.300;2023-07-28T10:13:06;4.53;;;2.53;;
3726;SDS011;1879;45.876;12.300;2023-07-28T10:15:46;3.40;;;2.10;;
3726;SDS011;1879;45.876;12.300;2023-07-28T10:18:13;2.73;;;2.13;;
3726;SDS011;1879;45.876;12.300;2023-07-28T10:20:42;4.10;;;2.53;;
3726;SDS011;1879;45.876;12.300;2023-07-28T10:23:14;2.50;;;2.30;;
3726;SDS011;1879;45.876;12.300;2023-07-28T10:25:43;2.10;;;1.90;;
3726;SDS011;1879;45.876;12.300;2023-07-28T10:30:56;2.30;;;1.93;;
3726;SDS011;1879;45.876;12.300;2023-07-28T10:33:27;4.73;;;2.40;;
3726;SDS011;1879;45.876;12.300;2023-07-28T10:35:56;2.53;;;1.80;;
3726;SDS011;1879;45.876;12.300;2023-07-28T10:38:31;2.73;;;1.90;;
3726;SDS011;1879;45.876;12.300;2023-07-28T10:41:12;2.50;;;2.00;;
3726;SDS011;1879;45.876;12.300;2023-07-28T10:43:41;2.53;;;2.20;;
3726;SDS011;1879;45.876;12.300;2023-07-28T10:46:09;3.20;;;2.23;;
3726;SDS011;1879;45.876;12.300;2023-07-28T10:48:40;3.83;;;2.60;;
3726;SDS011;1879;45.876;12.300;2023-07-28T10:51:08;2.27;;;2.07;;
3726;SDS011;1879;45.876;12.300;2023-07-28T10:53:36;3.13;;;2.17;;
3726;SDS011;1879;45.876;12.300;2023-07-28T10:56:04;2.90;;;2.20;;
3726;SDS011;1879;45.876;12.300;2023-07-28T10:58:34;2.13;;;1.93;;
3726;SDS011;1879;45.876;12.300;2023-07-28T11:01:01;4.30;;;2.30;;
3726;SDS011;1879;45.876;12.300;2023-07-28T11:03:28;3.03;;;2.50;;
3726;SDS011;1879;45.876;12.300;2023-07-28T11:05:57;4.60;;;2.47;;
3726;SDS011;1879;45.876;12.300;2023-07-28T11:08:24;2.77;;;2.57;;
3726;SDS011;1879;45.876;12.300;2023-07-28T11:10:51;2.23;;;2.03;;
3726;SDS011;1879;45.876;12.300;2023-07-28T11:13:18;4.80;;;2.13;;
3726;SDS011;1879;45.876;12.300;2023-07-28T11:15:46;4.33;;;2.30;;
3726;SDS011;1879;45.876;12.300;2023-07-28T11:18:14;4.13;;;2.80;;
3726;SDS011;1879;45.876;12.300;2023-07-28T11:20:42;2.90;;;2.37;;
3726;SDS011;1879;45.876;12.300;2023-07-28T11:23:13;4.03;;;2.30;;
3726;SDS011;1879;45.876;12.300;2023-07-28T11:25:41;2.73;;;2.40;;
3726;SDS011;1879;45.876;12.300;2023-07-28T11:28:09;2.80;;;2.30;;
3726;SDS011;1879;45.876;12.300;2023-07-28T11:30:36;3.20;;;2.43;;
3726;SDS011;1879;45.876;12.300;2023-07-28T11:33:07;3.23;;;2.33;;
3726;SDS011;1879;45.876;12.300;2023-07-28T11:35:35;2.80;;;2.60;;
3726;SDS011;1879;45.876;12.300;2023-07-28T11:38:03;4.03;;;2.20;;
3726;SDS011;1879;45.876;12.300;2023-07-28T11:40:32;2.67;;;2.47;;
3726;SDS011;1879;45.876;12.300;2023-07-28T11:42:59;3.20;;;2.90;;
3726;SDS011;1879;45.876;12.300;2023-07-28T11:45:28;5.87;;;2.90;;
3726;SDS011;1879;45.876;12.300;2023-07-28T11:47:56;3.13;;;2.50;;
3726;SDS011;1879;45.876;12.300;2023-07-28T11:50:24;3.00;;;2.70;;
3726;SDS011;1879;45.876;12.300;2023-07-28T11:52:51;3.20;;;2.57;;
3726;SDS011;1879;45.876;12.300;2023-07-28T11:55:19;2.90;;;2.10;;
3726;SDS011;1879;45.876;12.300;2023-07-28T11:57:48;5.00;;;3.00;;
3726;SDS011;1879;45.876;12.300;2023-07-28T12:00:16;3.90;;;2.90;;
3726;SDS011;1879;45.876;12.300;2023-07-28T12:02:43;3.83;;;2.80;;
3726;SDS011;1879;45.876;12.300;2023-07-28T12:05:12;2.73;;;2.33;;
3726;SDS011;1879;45.876;12.300;2023-07-28T12:07:39;2.93;;;2.63;;
3726;SDS011;1879;45.876;12.300;2023-07-28T12:10:07;3.27;;;2.60;;
3726;SDS011;1879;45.876;12.300;2023-07-28T12:12:41;3.63;;;2.80;;
3726;SDS011;1879;45.876;12.300;2023-07-28T12:15:24;3.40;;;2.73;;
3726;SDS011;1879;45.876;12.300;2023-07-28T12:18:06;3.97;;;2.77;;
3726;SDS011;1879;45.876;12.300;2023-07-28T12:20:38;4.73;;;2.80;;
3726;SDS011;1879;45.876;12.300;2023-07-28T12:23:06;5.20;;;2.93;;
3726;SDS011;1879;45.876;12.300;2023-07-28T12:25:35;3.50;;;2.80;;
3726;SDS011;1879;45.876;12.300;2023-07-28T12:28:02;4.00;;;2.60;;
3726;SDS011;1879;45.876;12.300;2023-07-28T12:30:31;3.73;;;3.00;;
3726;SDS011;1879;45.876;12.300;2023-07-28T12:32:58;2.73;;;2.27;;
3726;SDS011;1879;45.876;12.300;2023-07-28T12:35:25;3.53;;;3.03;;
3726;SDS011;1879;45.876;12.300;2023-07-28T12:37:56;4.87;;;2.70;;
3726;SDS011;1879;45.876;12.300;2023-07-28T12:40:24;3.70;;;2.80;;
3726;SDS011;1879;45.876;12.300;2023-07-28T12:42:52;3.00;;;2.50;;
3726;SDS011;1879;45.876;12.300;2023-07-28T12:45:19;3.90;;;3.23;;
3726;SDS011;1879;45.876;12.300;2023-07-28T12:47:48;5.43;;;2.73;;
3726;SDS011;1879;45.876;12.300;2023-07-28T12:50:15;3.17;;;2.90;;
3726;SDS011;1879;45.876;12.300;2023-07-28T12:52:42;4.23;;;2.70;;
3726;SDS011;1879;45.876;12.300;2023-07-28T12:55:09;3.30;;;2.67;;
3726;SDS011;1879;45.876;12.300;2023-07-28T12:57:36;4.10;;;3.07;;
3726;SDS011;1879;45.876;12.300;2023-07-28T13:00:04;4.63;;;2.50;;
3726;SDS011;1879;45.876;12.300;2023-07-28T13:02:37;3.53;;;3.23;;
3726;SDS011;1879;45.876;12.300;2023-07-28T13:05:06;3.10;;;2.80;;
3726;SDS011;1879;45.876;12.300;2023-07-28T13:07:35;5.30;;;3.07;;
3726;SDS011;1879;45.876;12.300;2023-07-28T13:10:03;3.60;;;2.87;;
3726;SDS011;1879;45.876;12.300;2023-07-28T13:12:32;3.13;;;2.70;;
3726;SDS011;1879;45.876;12.300;2023-07-28T13:14:59;4.77;;;3.53;;
3726;SDS011;1879;45.876;12.300;2023-07-28T13:17:26;3.83;;;3.00;;
3726;SDS011;1879;45.876;12.300;2023-07-28T13:19:53;3.30;;;3.00;;
3726;SDS011;1879;45.876;12.300;2023-07-28T13:22:23;3.00;;;2.70;;
3726;SDS011;1879;45.876;12.300;2023-07-28T13:24:51;3.53;;;2.90;;
3726;SDS011;1879;45.876;12.300;2023-07-28T13:27:18;2.87;;;2.67;;
3726;SDS011;1879;45.876;12.300;2023-07-28T13:29:45;4.20;;;3.33;;
3726;SDS011;1879;45.876;12.300;2023-07-28T13:32:16;5.23;;;3.17;;
3726;SDS011;1879;45.876;12.300;2023-07-28T13:34:44;4.13;;;2.70;;
3726;SDS011;1879;45.876;12.300;2023-07-28T13:37:11;3.63;;;3.07;;
3726;SDS011;1879;45.876;12.300;2023-07-28T13:39:40;6.67;;;3.70;;
3726;SDS011;1879;45.876;12.300;2023-07-28T13:42:08;4.40;;;3.07;;
3726;SDS011;1879;45.876;12.300;2023-07-28T13:44:35;6.70;;;3.30;;
3726;SDS011;1879;45.876;12.300;2023-07-28T13:47:03;3.90;;;3.03;;
3726;SDS011;1879;45.876;12.300;2023-07-28T13:49:30;4.93;;;3.60;;
3726;SDS011;1879;45.876;12.300;2023-07-28T13:52:00;3.70;;;3.30;;
3726;SDS011;1879;45.876;12.300;2023-07-28T13:54:27;3.70;;;3.17;;
3726;SDS011;1879;45.876;12.300;2023-07-28T13:56:55;4.10;;;2.87;;
3726;SDS011;1879;45.876;12.300;2023-07-28T13:59:22;6.10;;;3.00;;
3726;SDS011;1879;45.876;12.300;2023-07-28T14:01:49;3.40;;;2.83;;
3726;SDS011;1879;45.876;12.300;2023-07-28T14:04:17;3.37;;;2.90;;
3726;SDS011;1879;45.876;12.300;2023-07-28T14:06:44;3.70;;;3.00;;
3726;SDS011;1879;45.876;12.300;2023-07-28T14:09:11;3.70;;;3.23;;
3726;SDS011;1879;45.876;12.300;2023-07-28T14:11:38;4.47;;;2.70;;
3726;SDS011;1879;45.876;12.300;2023-07-28T14:14:06;3.53;;;3.07;;
3726;SDS011;1879;45.876;12.300;2023-07-28T14:16:33;2.70;;;2.50;;
3726;SDS011;1879;45.876;12.300;2023-07-28T14:19:00;3.57;;;2.80;;
3726;SDS011;1879;45.876;12.300;2023-07-28T14:21:28;5.60;;;2.70;;
3726;SDS011;1879;45.876;12.300;2023-07-28T14:23:55;2.93;;;2.73;;
3726;SDS011;1879;45.876;12.300;2023-07-28T14:26:22;6.57;;;3.07;;
3726;SDS011;1879;45.876;12.300;2023-07-28T14:28:49;5.93;;;2.80;;
3726;SDS011;1879;45.876;12.300;2023-07-28T14:31:18;3.43;;;3.13;;
3726;SDS011;1879;45.876;12.300;2023-07-28T14:33:45;5.40;;;4.33;;
3726;SDS011;1879;45.876;12.300;2023-07-28T14:36:12;7.20;;;4.57;;
3726;SDS011;1879;45.876;12.300;2023-07-28T14:38:38;9.93;;;3.70;;
3726;SDS011;1879;45.876;12.300;2023-07-28T14:41:05;6.97;;;4.00;;
3726;SDS011;1879;45.876;12.300;2023-07-28T14:43:32;4.87;;;3.60;;
3726;SDS011;1879;45.876;12.300;2023-07-28T14:45:59;3.17;;;2.87;;
3726;SDS011;1879;45.876;12.300;2023-07-28T14:48:28;4.20;;;3.40;;
3726;SDS011;1879;45.876;12.300;2023-07-28T14:50:55;3.03;;;2.73;;
3726;SDS011;1879;45.876;12.300;2023-07-28T14:53:28;3.20;;;2.50;;
3726;SDS011;1879;45.876;12.300;2023-07-28T14:55:56;4.40;;;3.20;;
3726;SDS011;1879;45.876;12.300;2023-07-28T14:58:24;3.57;;;3.27;;
3726;SDS011;1879;45.876;12.300;2023-07-28T15:00:51;4.00;;;2.90;;
3726;SDS011;1879;45.876;12.300;2023-07-28T15:03:18;4.40;;;3.00;;
3726;SDS011;1879;45.876;12.300;2023-07-28T15:05:46;3.80;;;3.30;;
3726;SDS011;1879;45.876;12.300;2023-07-28T15:08:13;6.30;;;3.23;;